Wellington, FL

10:42 AM EDT on September 01, 2015 (GMT -0400)
Indigo Weather | | Change Station
CLOSE
Current Station
Personal Weather Station
Location: Wellington, FL
Elevation: 23 ft
Nearby Weather Stations

Elev 23 ft 26.67 °N, 80.26 °W | Updated 3 minutes ago

Partly Cloudy
Partly Cloudy
87.5 °F
Feels Like 88 °F
N
0.0
Wind Variable Wind from SE
Gusts 4.0 mph

Today
High -- | Low -- °F
--% Chance of Precip.
Yesterday
High -- | Low -- °F
Precip. -- in
7:00 AM 7:41 PM
Waning Gibbous, 88% visible
Pressure 30.11 in
Visibility 10.0 miles
Clouds Scattered Clouds 2800 ft
Scattered Clouds 7000 ft
Mostly Cloudy 17000 ft
Heat Index 88 °F
Dew Point 62 °F
Humidity 42%
Rainfall 0.01 in
Snow Depth Not available.
UV 3 out of 12
Pollen 4.80 out of 12
Air Quality Not available.
Flu Activity Not available.
METAR KPBI 011353Z 32004KT 10SM SCT028TCU SCT070 BKN170 29/24 A3011 RMK AO2 SLP195 TCU NE-SE CB DSNT N-NE T02940239
Pressure 30.11 in
Visibility 10.0 miles
Clouds Scattered Clouds 2800 ft
Scattered Clouds 7000 ft
Mostly Cloudy 17000 ft
Heat Index 88 °F
Dew Point 62 °F
Humidity 42%
Rainfall 0.01 in
Snow Depth Not available.
UV 3 out of 12
Pollen 4.80 out of 12
Air Quality Not available.
Flu Activity Not available.
METAR KPBI 011353Z 32004KT 10SM SCT028TCU SCT070 BKN170 29/24 A3011 RMK AO2 SLP195 TCU NE-SE CB DSNT N-NE T02940239

10-Day Weather Forecast

×

Almanac

Astronomy

Sep. 01, 2015 Rise Set
Actual Time
Civil Twilight
Nautical Twilight
Astronomical Twilight
Moon
Length of Visible Light
Length of Day
Tomorrow will be .
, % of the Moon is Illuminated

Today's Extremes

State Highs State Lows

Community

WunderPhotos

Upload Photos

1,851,513 photos uploaded!

WunderBlogs® & News

Nearby

Air Quality

  Air Quality AQ Index Pollutant
Not available.

Snow Depth

Station Depth Elevation

Earthquake Activity

City Distance Mag. Time & Date
Minimum magnitude displayed is 2.5.

Coastal Water Temperatures

Place Temperature

Stations

Nearby Weather Stations

Station Location Temp. Windchill Dew Point Humidity Wind Precip. Elev Updated Type